createdAt,value
2022-12-19T00:00:31.903Z,-0.29
2022-12-19T00:03:01.720Z,-0.16
2022-12-19T00:05:30.096Z,-0.15
2022-12-19T00:07:59.000Z,-0.16
2022-12-19T00:10:30.714Z,-0.03
2022-12-19T00:12:58.976Z,0.12
2022-12-19T00:15:27.282Z,0.00
2022-12-19T00:17:55.556Z,-0.14
2022-12-19T00:20:25.254Z,0.00
2022-12-19T00:22:53.585Z,0.08
2022-12-19T00:25:22.034Z,0.18
2022-12-19T00:27:50.333Z,0.17
2022-12-19T00:30:18.996Z,0.16
2022-12-19T00:32:47.677Z,0.34
2022-12-19T00:35:16.214Z,0.36
2022-12-19T00:37:49.729Z,0.31
2022-12-19T00:40:18.625Z,0.38
2022-12-19T00:42:53.188Z,0.30
2022-12-19T00:45:22.090Z,0.37
2022-12-19T00:47:50.377Z,0.18
2022-12-19T00:50:18.746Z,0.46
2022-12-19T00:52:48.354Z,0.36
2022-12-19T00:55:19.301Z,0.60
2022-12-19T00:57:48.346Z,0.56
2022-12-19T01:00:18.642Z,0.57
2022-12-19T01:02:47.267Z,0.49
2022-12-19T01:05:15.637Z,0.49
2022-12-19T01:07:43.925Z,0.31
2022-12-19T01:10:13.988Z,0.48
2022-12-19T01:12:46.949Z,0.53
2022-12-19T01:15:17.672Z,0.44
2022-12-19T01:17:46.104Z,0.33
2022-12-19T01:20:16.673Z,0.23
2022-12-19T01:22:46.921Z,0.48
2022-12-19T01:25:17.256Z,0.49
2022-12-19T01:27:45.573Z,0.40
2022-12-19T01:30:14.910Z,0.69
2022-12-19T01:32:43.685Z,0.61
2022-12-19T01:35:19.780Z,0.61
2022-12-19T01:37:51.527Z,0.69
2022-12-19T01:40:22.526Z,0.69
2022-12-19T01:42:51.589Z,0.76
2022-12-19T01:45:34.473Z,0.69
2022-12-19T01:48:18.523Z,0.78
2022-12-19T01:51:01.283Z,0.98
2022-12-19T01:53:49.467Z,0.88
2022-12-19T01:56:24.169Z,0.92
2022-12-19T01:59:05.605Z,0.97
2022-12-19T02:01:44.983Z,1.11
2022-12-19T02:04:21.491Z,1.17
2022-12-19T02:06:51.258Z,1.10
2022-12-19T02:09:20.094Z,1.25
2022-12-19T02:11:54.069Z,1.24
2022-12-19T02:14:23.149Z,1.29
2022-12-19T02:17:02.850Z,1.15
2022-12-19T02:20:16.815Z,1.31
2022-12-19T02:23:04.506Z,1.30
2022-12-19T02:26:01.422Z,1.33
2022-12-19T02:29:11.828Z,1.47
2022-12-19T02:31:49.303Z,1.37
2022-12-19T02:34:26.886Z,1.27
2022-12-19T02:37:06.118Z,1.29
2022-12-19T02:39:43.121Z,1.58
2022-12-19T02:42:16.281Z,1.62
2022-12-19T02:44:52.289Z,1.55
2022-12-19T02:47:23.347Z,1.51
2022-12-19T02:49:51.952Z,1.64
2022-12-19T02:52:46.046Z,1.87
2022-12-19T02:55:21.328Z,1.64
2022-12-19T02:58:16.869Z,1.77
2022-12-19T03:01:11.180Z,1.67
2022-12-19T03:03:53.422Z,1.62
2022-12-19T03:06:32.890Z,1.71
2022-12-19T03:09:10.735Z,1.78
2022-12-19T03:11:43.089Z,1.73
2022-12-19T03:14:15.587Z,1.64
2022-12-19T03:16:44.168Z,1.77
2022-12-19T03:19:15.987Z,1.93
2022-12-19T03:21:47.732Z,1.73
2022-12-19T03:24:17.764Z,2.08
2022-12-19T03:26:53.184Z,2.08
2022-12-19T03:29:28.285Z,2.12
2022-12-19T03:31:58.379Z,2.20
2022-12-19T03:34:33.585Z,2.19
2022-12-19T03:37:06.465Z,2.29
2022-12-19T03:39:37.295Z,2.17
2022-12-19T03:42:25.113Z,2.28
2022-12-19T03:44:56.692Z,2.10
2022-12-19T03:47:32.942Z,2.26
2022-12-19T03:50:02.936Z,2.24
2022-12-19T03:52:40.343Z,2.51
2022-12-19T03:55:16.472Z,2.57
2022-12-19T03:57:52.515Z,2.61
2022-12-19T04:00:22.150Z,2.57
2022-12-19T04:02:53.526Z,2.71
2022-12-19T04:05:27.022Z,2.66
2022-12-19T04:07:59.311Z,2.67
2022-12-19T04:10:29.980Z,2.57
2022-12-19T04:13:04.173Z,2.42
2022-12-19T04:15:42.833Z,2.79
2022-12-19T04:18:14.830Z,2.93
2022-12-19T04:20:48.241Z,2.89
2022-12-19T04:23:22.658Z,2.89
2022-12-19T04:25:56.577Z,3.00
2022-12-19T04:28:31.652Z,3.04
2022-12-19T04:31:01.029Z,3.15
2022-12-19T04:33:29.317Z,3.13
2022-12-19T04:35:59.602Z,3.16
2022-12-19T04:38:28.340Z,3.26
2022-12-19T04:40:56.656Z,3.40
2022-12-19T04:43:24.995Z,3.43
2022-12-19T04:45:57.273Z,3.26
2022-12-19T04:48:26.177Z,3.55
2022-12-19T04:50:54.701Z,3.51
2022-12-19T04:53:25.672Z,3.44
2022-12-19T04:56:02.346Z,3.49
2022-12-19T04:58:30.808Z,3.72
2022-12-19T05:01:03.029Z,3.76
2022-12-19T05:03:31.326Z,3.63
2022-12-19T05:06:07.963Z,3.70
2022-12-19T05:08:39.406Z,3.74
2022-12-19T05:11:19.175Z,3.78
2022-12-19T05:13:49.933Z,3.81
2022-12-19T05:16:18.814Z,3.83
2022-12-19T05:18:47.315Z,4.05
2022-12-19T05:21:15.793Z,4.15
2022-12-19T05:23:45.410Z,3.97
2022-12-19T05:26:14.165Z,4.20
2022-12-19T05:28:42.655Z,4.29
2022-12-19T05:31:15.892Z,3.89
2022-12-19T05:33:44.922Z,4.10
2022-12-19T05:36:16.656Z,4.24
2022-12-19T05:38:46.549Z,4.12
2022-12-19T05:41:16.584Z,4.20
2022-12-19T05:43:46.096Z,3.92
2022-12-19T05:46:14.464Z,4.17
2022-12-19T05:48:42.861Z,4.29
2022-12-19T05:51:11.757Z,4.11
2022-12-19T05:53:41.313Z,4.26
2022-12-19T05:56:13.357Z,4.33
2022-12-19T05:58:42.869Z,4.13
2022-12-19T06:01:14.869Z,4.39
2022-12-19T06:03:44.289Z,4.39
2022-12-19T06:06:15.836Z,4.43
2022-12-19T06:08:44.487Z,4.43
2022-12-19T06:11:15.349Z,4.45
2022-12-19T06:13:44.000Z,4.48
2022-12-19T06:16:15.014Z,4.32
2022-12-19T06:18:45.614Z,4.33
2022-12-19T06:21:17.406Z,4.41
2022-12-19T06:23:46.456Z,4.45
2022-12-19T06:26:20.309Z,4.39
2022-12-19T06:28:49.628Z,4.37
2022-12-19T06:31:18.902Z,4.60
2022-12-19T06:33:47.340Z,4.58
2022-12-19T06:36:20.633Z,4.56
2022-12-19T06:38:49.517Z,4.64
2022-12-19T06:41:37.441Z,4.49
2022-12-19T06:44:09.232Z,4.74
2022-12-19T06:46:38.642Z,4.47
2022-12-19T06:49:07.507Z,4.60
2022-12-19T06:51:36.005Z,4.66
2022-12-19T06:54:04.856Z,4.64
2022-12-19T06:56:38.268Z,4.76
2022-12-19T06:59:07.521Z,4.52
2022-12-19T07:01:59.054Z,4.72
2022-12-19T07:04:33.056Z,4.77
2022-12-19T07:07:01.881Z,4.92
2022-12-19T07:09:31.863Z,4.93
2022-12-19T07:12:01.823Z,4.77
2022-12-19T07:14:30.108Z,4.81
2022-12-19T07:17:01.045Z,4.83
2022-12-19T07:19:31.548Z,4.76
2022-12-19T07:22:01.641Z,4.88
2022-12-19T07:24:30.922Z,4.83
2022-12-19T07:27:01.008Z,4.90
2022-12-19T07:29:29.245Z,5.08
2022-12-19T07:31:57.563Z,5.10
2022-12-19T07:34:25.900Z,5.06
2022-12-19T07:36:54.231Z,5.10
2022-12-19T07:39:22.928Z,4.99
2022-12-19T07:41:51.188Z,5.09
2022-12-19T07:44:32.459Z,5.09
2022-12-19T07:47:00.670Z,5.34
2022-12-19T07:49:29.011Z,5.06
2022-12-19T07:51:57.435Z,5.22
2022-12-19T07:54:25.844Z,5.22
2022-12-19T07:56:54.211Z,5.23
2022-12-19T07:59:28.884Z,5.32
2022-12-19T08:02:00.178Z,5.36
2022-12-19T08:04:28.697Z,5.25
2022-12-19T08:06:57.342Z,5.30
2022-12-19T08:09:27.726Z,5.39
2022-12-19T08:11:56.369Z,5.36
2022-12-19T08:14:24.628Z,5.28
2022-12-19T08:19:42.661Z,5.41
2022-12-19T08:22:10.982Z,5.23
2022-12-19T08:24:39.432Z,5.30
2022-12-19T08:27:07.690Z,5.37
2022-12-19T08:29:36.053Z,5.40
2022-12-19T08:32:04.455Z,5.21
2022-12-19T08:34:32.915Z,5.31
2022-12-19T08:37:02.674Z,5.27
2022-12-19T08:39:31.010Z,5.15
2022-12-19T08:41:59.253Z,5.25
2022-12-19T08:44:27.543Z,5.42
2022-12-19T08:46:55.987Z,5.31
2022-12-19T08:49:24.350Z,5.54
2022-12-19T08:51:52.627Z,5.35
2022-12-19T08:54:22.450Z,5.52
2022-12-19T08:56:50.739Z,5.65
2022-12-19T08:59:30.333Z,5.52
2022-12-19T09:02:00.616Z,5.62
2022-12-19T09:05:11.122Z,5.31
2022-12-19T09:07:18.383Z,5.24
2022-12-19T09:09:48.103Z,5.53
2022-12-19T09:12:17.365Z,5.44
2022-12-19T09:14:45.941Z,5.47
2022-12-19T09:17:15.313Z,5.42
2022-12-19T09:19:45.111Z,5.61
2022-12-19T09:22:16.988Z,5.20
2022-12-19T09:24:45.721Z,5.47
2022-12-19T09:27:15.562Z,5.60
2022-12-19T09:29:44.467Z,5.61
2022-12-19T09:32:12.903Z,5.57
2022-12-19T09:34:41.279Z,5.52
2022-12-19T09:37:15.948Z,5.77
2022-12-19T09:39:47.319Z,5.73
2022-12-19T09:43:02.313Z,5.82
2022-12-19T09:45:46.198Z,5.84
2022-12-19T09:48:22.849Z,5.90
2022-12-19T09:51:10.532Z,5.97
2022-12-19T09:53:54.666Z,5.81
2022-12-19T09:56:45.645Z,5.86
2022-12-19T09:59:28.725Z,5.67
2022-12-19T10:02:27.359Z,5.63
2022-12-19T10:05:27.460Z,5.56
2022-12-19T10:08:08.299Z,5.91
2022-12-19T10:12:38.877Z,5.83
2022-12-19T10:14:04.002Z,6.07
2022-12-19T10:17:22.440Z,6.13
2022-12-19T10:19:58.397Z,6.09
2022-12-19T10:22:39.100Z,5.93
2022-12-19T10:25:29.235Z,6.11
2022-12-19T10:28:13.310Z,6.10
2022-12-19T10:30:48.666Z,6.06
2022-12-19T10:33:29.819Z,5.93
2022-12-19T10:36:03.062Z,5.97
2022-12-19T10:38:38.802Z,6.01
2022-12-19T10:41:19.437Z,5.94
2022-12-19T10:44:02.440Z,5.92
2022-12-19T10:46:42.846Z,5.99
2022-12-19T10:49:18.789Z,5.90
2022-12-19T10:52:00.001Z,5.85
2022-12-19T10:54:41.589Z,6.04
2022-12-19T10:57:25.498Z,6.11
2022-12-19T10:59:59.411Z,6.23
2022-12-19T11:02:44.581Z,6.14
2022-12-19T11:05:28.232Z,6.06
2022-12-19T11:08:17.979Z,6.49
2022-12-19T11:12:48.524Z,6.38
2022-12-19T11:18:37.845Z,6.45
2022-12-19T11:21:38.550Z,6.52
2022-12-19T11:29:43.776Z,6.55
2022-12-19T11:30:06.588Z,6.46
2022-12-19T11:30:25.575Z,6.65
2022-12-19T11:30:47.112Z,6.46
2022-12-19T11:34:07.050Z,6.53
2022-12-19T11:36:42.434Z,6.80
2022-12-19T11:39:19.884Z,6.70
2022-12-19T11:41:56.316Z,6.81
2022-12-19T11:44:31.423Z,6.81
2022-12-19T11:47:14.257Z,6.99
2022-12-19T11:49:47.446Z,7.07
2022-12-19T11:55:23.618Z,7.17
2022-12-19T11:57:52.899Z,7.16
2022-12-19T12:00:24.556Z,7.01
2022-12-19T12:03:15.567Z,7.34
2022-12-19T12:05:45.741Z,7.34
2022-12-19T12:10:21.217Z,7.18
2022-12-19T12:18:59.217Z,7.23
2022-12-19T12:29:17.048Z,7.26
2022-12-19T12:31:14.804Z,7.28
2022-12-19T12:31:17.895Z,7.60
2022-12-19T12:31:23.394Z,7.45
2022-12-19T12:31:39.011Z,7.57
2022-12-19T12:31:58.265Z,7.49
2022-12-19T12:35:28.675Z,7.46
2022-12-19T12:39:16.039Z,7.73
2022-12-19T12:42:06.174Z,7.55
2022-12-19T12:44:44.841Z,7.46
2022-12-19T12:47:20.491Z,7.56
2022-12-19T12:49:54.361Z,7.54
2022-12-19T12:52:31.044Z,7.53
2022-12-19T12:54:59.635Z,7.71
2022-12-19T12:57:39.671Z,7.52
2022-12-19T13:00:22.606Z,7.53
2022-12-19T13:02:56.287Z,7.43
2022-12-19T13:05:39.385Z,7.38
2022-12-19T13:08:36.276Z,7.48
2022-12-19T13:11:07.952Z,7.44
2022-12-19T13:13:58.615Z,7.46
2022-12-19T13:16:54.032Z,7.25
2022-12-19T13:19:28.440Z,7.45
2022-12-19T13:22:22.498Z,7.28
2022-12-19T13:24:53.487Z,7.58
2022-12-19T13:27:40.684Z,7.53
2022-12-19T13:30:19.802Z,7.54
2022-12-19T13:33:11.305Z,7.49
2022-12-19T13:39:48.280Z,7.38
2022-12-19T13:39:56.269Z,7.48
2022-12-19T13:41:59.958Z,7.42
2022-12-19T13:44:28.859Z,7.43
2022-12-19T13:46:58.454Z,7.65
2022-12-19T13:49:34.803Z,7.46
2022-12-19T13:52:06.316Z,7.73
2022-12-19T13:54:46.507Z,7.63
2022-12-19T13:57:23.924Z,7.66
2022-12-19T14:00:00.575Z,7.68
2022-12-19T14:02:44.861Z,7.68
2022-12-19T14:05:53.298Z,7.54
2022-12-19T14:08:20.854Z,7.62
2022-12-19T14:11:29.835Z,7.52
2022-12-19T14:14:12.786Z,7.51
2022-12-19T14:16:46.445Z,7.58
2022-12-19T14:19:27.620Z,7.52
2022-12-19T14:22:03.778Z,7.30
2022-12-19T14:24:37.009Z,7.36
2022-12-19T14:28:18.956Z,7.45
2022-12-19T14:30:27.901Z,7.36
2022-12-19T14:33:40.694Z,7.33
2022-12-19T14:36:08.841Z,7.47
2022-12-19T14:39:22.087Z,7.51
2022-12-19T14:42:08.341Z,7.60
2022-12-19T14:53:52.604Z,7.56
2022-12-19T14:54:08.902Z,7.54
2022-12-19T14:54:14.803Z,7.34
2022-12-19T14:54:31.363Z,7.22
2022-12-19T14:59:05.366Z,7.51
2022-12-19T15:01:36.721Z,7.52
2022-12-19T15:04:49.466Z,7.56
2022-12-19T15:07:12.212Z,7.44
2022-12-19T15:11:03.347Z,7.64
2022-12-19T15:14:46.750Z,7.57
2022-12-19T15:16:05.255Z,7.38
2022-12-19T15:18:42.475Z,7.52
2022-12-19T15:21:14.082Z,7.17
2022-12-19T15:23:44.716Z,7.05
2022-12-19T15:26:18.187Z,7.51
2022-12-19T15:28:50.769Z,7.59
2022-12-19T15:31:30.130Z,7.47
2022-12-19T15:36:47.373Z,7.45
2022-12-19T15:39:16.179Z,7.42
2022-12-19T15:41:49.014Z,7.20
2022-12-19T15:44:21.288Z,7.22
2022-12-19T15:46:50.289Z,7.22
2022-12-19T15:49:21.883Z,7.29
2022-12-19T15:51:51.317Z,7.08
2022-12-19T15:57:25.635Z,7.14
2022-12-19T15:59:54.518Z,7.14
2022-12-19T16:02:27.896Z,7.13
2022-12-19T16:05:06.933Z,7.23
2022-12-19T16:07:35.308Z,7.34
2022-12-19T16:10:03.728Z,7.33
2022-12-19T16:12:39.079Z,7.27
2022-12-19T16:15:16.429Z,7.43
2022-12-19T16:17:44.734Z,7.42
2022-12-19T16:20:20.087Z,7.30
2022-12-19T16:22:48.651Z,7.27
2022-12-19T16:25:17.351Z,7.35
2022-12-19T16:27:52.113Z,7.44
2022-12-19T16:30:24.025Z,7.38
2022-12-19T16:32:53.474Z,7.10
2022-12-19T16:36:02.501Z,7.03
2022-12-19T16:38:17.461Z,7.04
2022-12-19T16:40:47.191Z,7.06
2022-12-19T16:43:31.271Z,7.01
2022-12-19T16:46:01.763Z,7.04
2022-12-19T16:48:31.641Z,7.00
2022-12-19T16:51:00.867Z,6.93
2022-12-19T16:53:29.402Z,6.92
2022-12-19T16:56:00.501Z,6.86
2022-12-19T16:58:34.484Z,7.04
2022-12-19T17:01:05.244Z,7.19
2022-12-19T17:03:40.874Z,7.27
2022-12-19T17:06:12.394Z,7.25
2022-12-19T17:08:44.157Z,7.28
2022-12-19T17:11:19.886Z,7.23
2022-12-19T17:13:53.575Z,7.03
2022-12-19T17:16:22.127Z,7.00
2022-12-19T17:18:50.615Z,6.93
2022-12-19T17:21:21.620Z,6.97
2022-12-19T17:23:50.734Z,7.08
2022-12-19T17:26:19.434Z,7.08
2022-12-19T17:28:49.337Z,6.93
2022-12-19T17:31:24.277Z,6.86
2022-12-19T17:33:53.321Z,7.16
2022-12-19T17:36:26.087Z,7.03
2022-12-19T17:38:55.967Z,7.05
2022-12-19T17:41:25.484Z,6.95
2022-12-19T17:43:55.177Z,6.95
2022-12-19T17:46:25.743Z,6.99
2022-12-19T17:48:55.295Z,7.10
2022-12-19T17:51:24.716Z,7.09
2022-12-19T17:53:53.017Z,7.12
2022-12-19T17:56:22.359Z,7.01
2022-12-19T17:58:51.132Z,7.31
2022-12-19T18:01:23.852Z,7.24
2022-12-19T18:03:56.110Z,7.41
2022-12-19T18:06:24.593Z,7.50
2022-12-19T18:08:52.942Z,7.26
2022-12-19T18:11:24.086Z,7.19
2022-12-19T18:13:54.596Z,7.15
2022-12-19T18:16:28.348Z,7.27
2022-12-19T18:18:56.915Z,7.52
2022-12-19T18:21:25.315Z,7.41
2022-12-19T18:23:53.772Z,7.36
2022-12-19T18:26:22.109Z,7.31
2022-12-19T18:28:50.437Z,7.23
2022-12-19T18:31:25.525Z,7.20
2022-12-19T18:33:59.559Z,7.32
2022-12-19T18:36:40.086Z,7.25
2022-12-19T18:39:21.086Z,7.16
2022-12-19T18:41:50.252Z,6.99
2022-12-19T18:44:19.342Z,6.99
2022-12-19T18:46:50.670Z,6.99
2022-12-19T18:49:19.072Z,6.71
2022-12-19T18:51:47.753Z,6.60
2022-12-19T18:54:18.747Z,6.44
2022-12-19T18:56:48.647Z,6.39
2022-12-19T18:59:17.244Z,6.18
2022-12-19T19:01:48.400Z,6.40
2022-12-19T19:04:18.368Z,6.41
2022-12-19T19:06:52.156Z,6.14
2022-12-19T19:09:22.623Z,6.36
2022-12-19T19:11:59.317Z,6.05
2022-12-19T19:14:27.622Z,6.22
2022-12-19T19:16:57.307Z,6.24
2022-12-19T19:19:26.194Z,6.22
2022-12-19T19:21:55.343Z,6.39
2022-12-19T19:24:24.457Z,6.13
2022-12-19T19:26:53.037Z,6.29
2022-12-19T19:29:21.381Z,6.19
2022-12-19T19:31:52.855Z,6.22
2022-12-19T19:34:27.118Z,6.22
2022-12-19T19:36:58.343Z,6.13
2022-12-19T19:39:27.730Z,6.15
2022-12-19T19:41:56.841Z,6.19
2022-12-19T19:44:25.155Z,6.17
2022-12-19T19:46:53.943Z,6.18
2022-12-19T19:49:24.347Z,5.97
2022-12-19T19:51:58.507Z,6.05
2022-12-19T19:54:30.698Z,5.89
2022-12-19T19:56:59.527Z,6.28
2022-12-19T19:59:31.746Z,6.09
2022-12-19T20:02:00.232Z,6.17
2022-12-19T20:04:30.262Z,6.13
2022-12-19T20:06:58.826Z,6.26
2022-12-19T20:09:27.204Z,6.33
2022-12-19T20:11:56.643Z,6.37
2022-12-19T20:14:26.553Z,6.11
2022-12-19T20:16:55.240Z,6.18
2022-12-19T20:19:23.789Z,6.35
2022-12-19T20:21:53.554Z,6.30
2022-12-19T20:24:21.907Z,6.44
2022-12-19T20:26:50.355Z,6.15
2022-12-19T20:29:18.987Z,6.34
2022-12-19T20:31:47.721Z,6.18
2022-12-19T20:34:16.380Z,6.21
2022-12-19T20:36:45.131Z,6.20
2022-12-19T20:39:15.147Z,6.21
2022-12-19T20:41:43.500Z,6.40
2022-12-19T20:44:11.815Z,6.42
2022-12-19T20:46:40.250Z,6.25
2022-12-19T20:49:08.968Z,6.53
2022-12-19T20:51:38.041Z,6.31
2022-12-19T20:54:07.344Z,6.34
2022-12-19T20:56:37.223Z,6.44
2022-12-19T20:59:05.971Z,6.44
2022-12-19T21:01:34.546Z,6.22
2022-12-19T21:04:03.206Z,6.22
2022-12-19T21:06:31.930Z,6.17
2022-12-19T21:09:00.225Z,6.14
2022-12-19T21:11:28.630Z,6.18
2022-12-19T21:13:58.461Z,6.19
2022-12-19T21:16:28.004Z,6.17
2022-12-19T21:18:56.331Z,6.10
2022-12-19T21:21:27.811Z,5.97
2022-12-19T21:23:56.709Z,6.01
2022-12-19T21:26:26.664Z,5.85
2022-12-19T21:28:57.870Z,5.83
2022-12-19T21:31:30.936Z,5.80
2022-12-19T21:34:02.415Z,5.61
2022-12-19T21:36:32.169Z,5.67
2022-12-19T21:39:02.673Z,5.81
2022-12-19T21:41:31.717Z,5.74
2022-12-19T21:44:00.886Z,5.91
2022-12-19T21:46:33.981Z,5.67
2022-12-19T21:49:03.271Z,5.82
2022-12-19T21:51:32.958Z,5.70
2022-12-19T21:54:04.165Z,5.71
2022-12-19T21:56:35.096Z,5.80
2022-12-19T21:59:06.845Z,5.77
2022-12-19T22:01:36.897Z,5.56
2022-12-19T22:04:08.553Z,5.50
2022-12-19T22:06:39.253Z,5.72
2022-12-19T22:09:10.627Z,5.84
2022-12-19T22:11:39.400Z,5.84
2022-12-19T22:14:08.567Z,5.80
2022-12-19T22:16:38.436Z,5.81
2022-12-19T22:19:07.223Z,5.66
2022-12-19T22:21:38.543Z,5.60
2022-12-19T22:24:07.584Z,5.77
2022-12-19T22:26:36.464Z,5.70
2022-12-19T22:29:09.383Z,5.49
2022-12-19T22:31:40.785Z,5.56
2022-12-19T22:34:13.031Z,5.60
2022-12-19T22:36:43.400Z,5.55
2022-12-19T22:39:16.393Z,5.59
2022-12-19T22:41:45.268Z,5.70
2022-12-19T22:44:19.006Z,5.51
2022-12-19T22:46:49.666Z,5.31
2022-12-19T22:49:18.527Z,5.59
2022-12-19T22:51:48.254Z,5.62
2022-12-19T22:54:16.637Z,5.64
2022-12-19T22:56:44.981Z,5.71
2022-12-19T22:59:13.895Z,5.78
2022-12-19T23:01:44.397Z,5.67
2022-12-19T23:04:17.466Z,5.77
2022-12-19T23:06:46.513Z,5.70
2022-12-19T23:09:17.160Z,5.70
2022-12-19T23:11:48.916Z,5.82
2022-12-19T23:14:19.968Z,5.60
2022-12-19T23:16:49.783Z,5.78
2022-12-19T23:19:20.125Z,5.60
2022-12-19T23:21:48.806Z,5.82
2022-12-19T23:24:17.263Z,5.90
2022-12-19T23:26:46.295Z,5.80
2022-12-19T23:29:16.309Z,5.74
2022-12-19T23:31:48.079Z,5.67
2022-12-19T23:34:16.992Z,5.53
2022-12-19T23:39:35.327Z,5.70
2022-12-19T23:42:03.738Z,5.61
2022-12-19T23:44:32.181Z,5.71
2022-12-19T23:47:03.400Z,5.72
2022-12-19T23:49:33.444Z,5.76
2022-12-19T23:52:03.484Z,5.88
2022-12-19T23:54:31.969Z,5.93
2022-12-19T23:57:00.337Z,5.94
2022-12-19T23:59:28.759Z,5.92
